Time;durP1;ratioP1;P1;durP2;ratioP2;P2;SDS_P1;SDS_P2;PMS_P1;PMS_P2;Temp;Humidity;BMP_temperature;BMP_pressure;BME280_temperature;BME280_humidity;BME280_pressure;Samples;Min_cycle;Max_cycle;Signal;HPM_P1;HPM_P2
2022/11/22 00:00:06;;;;;;;;;;;5.30;99.90;;;;;;4998306;28;19934;-70
2022/11/22 00:02:33;;;;;;;;;;;5.30;99.90;;;;;;5001935;28;19956;-70
2022/11/22 00:05:00;;;;;;;;;;;5.30;99.90;;;;;;5012605;28;19953;-70
2022/11/22 00:07:27;;;;;;;;;;;5.30;99.90;;;;;;4998619;28;20015;-70
2022/11/22 00:09:55;;;;;;;;;;;5.30;99.90;;;;;;5003081;28;19965;-70
2022/11/22 00:12:22;;;;;;;;;;;5.30;99.90;;;;;;5001368;28;20012;-70
2022/11/22 00:14:49;;;;;;;;;;;5.30;99.90;;;;;;4998392;28;19941;-70
2022/11/22 00:17:15;;;;;;;;;;;5.30;99.90;;;;;;5000532;28;20012;-70
2022/11/22 00:19:42;;;;;;;;;;;5.30;99.90;;;;;;5005224;28;19936;-70
2022/11/22 00:22:09;;;;;;;;;;;5.30;99.90;;;;;;5007210;28;19925;-70
2022/11/22 00:24:36;;;;;;;;;;;5.30;99.90;;;;;;4998401;28;20020;-70
2022/11/22 00:27:04;;;;;;;;;;;5.30;99.90;;;;;;5001686;28;19940;-70
2022/11/22 00:29:31;;;;;;;;;;;5.30;99.90;;;;;;5001141;28;19933;-70
2022/11/22 00:31:57;;;;;;;;;;;5.30;99.90;;;;;;4996130;28;20447;-70
2022/11/22 00:34:27;;;;;;;;;;;5.30;99.90;;;;;;5003200;28;20311;-70
2022/11/22 00:36:54;;;;;;;;;;;5.30;99.90;;;;;;4997041;28;20022;-70
2022/11/22 00:39:20;;;;;;;;;;;5.30;99.90;;;;;;4997353;28;19932;-70
2022/11/22 00:41:47;;;;;;;;;;;5.30;99.90;;;;;;4994726;28;19933;-70
2022/11/22 00:44:15;;;;;;;;;;;5.30;99.90;;;;;;4997701;28;19934;-70
2022/11/22 00:46:42;;;;;;;;;;;5.30;99.90;;;;;;4999981;28;19957;-70
2022/11/22 00:49:09;;;;;;;;;;;5.30;99.90;;;;;;4998378;28;19925;-70
2022/11/22 00:51:36;;;;;;;;;;;5.30;99.90;;;;;;5010862;28;19925;-70
2022/11/22 00:54:02;;;;;;;;;;;5.30;99.90;;;;;;5001000;28;20644;-70
2022/11/22 00:56:30;;;;;;;;;;;5.30;99.90;;;;;;4994215;28;20740;-70
2022/11/22 00:58:57;;;;;;;;;;;5.30;99.90;;;;;;4996118;28;19926;-70
2022/11/22 01:01:25;;;;;;;;;;;5.30;99.90;;;;;;5002492;28;20020;-70
2022/11/22 01:03:52;;;;;;;;;;;5.30;99.90;;;;;;5003809;28;20379;-70
2022/11/22 01:06:19;;;;;;;;;;;5.30;99.90;;;;;;4994773;28;20024;-70
2022/11/22 01:08:46;;;;;;;;;;;5.30;99.90;;;;;;4997917;28;19940;-70
2022/11/22 01:11:13;;;;;;;;;;;5.30;99.90;;;;;;5003910;28;19925;-70
2022/11/22 01:13:40;;;;;;;;;;;5.30;99.90;;;;;;4994278;28;20400;-70
2022/11/22 01:16:08;;;;;;;;;;;5.30;99.90;;;;;;4998685;28;19929;-70
2022/11/22 01:18:36;;;;;;;;;;;5.30;99.90;;;;;;4998794;28;19934;-70
2022/11/22 01:21:04;;;;;;;;;;;5.30;99.90;;;;;;4992802;28;20026;-70
2022/11/22 01:23:31;;;;;;;;;;;5.30;99.90;;;;;;4997010;28;19926;-70
2022/11/22 01:25:58;;;;;;;;;;;5.30;99.90;;;;;;5000371;28;19925;-70
2022/11/22 01:28:25;;;;;;;;;;;5.30;99.90;;;;;;4998655;28;20423;-70
2022/11/22 01:30:52;;;;;;;;;;;5.30;99.90;;;;;;4996384;28;20036;-70
2022/11/22 01:33:19;;;;;;;;;;;5.30;99.90;;;;;;5001874;28;19941;-70
2022/11/22 01:35:47;;;;;;;;;;;5.30;99.90;;;;;;4998176;28;22285;-70
2022/11/22 01:38:14;;;;;;;;;;;5.30;99.90;;;;;;4996208;28;19929;-70
2022/11/22 01:40:41;;;;;;;;;;;5.30;99.90;;;;;;4996229;28;19926;-70
2022/11/22 01:43:14;;;;;;;;;;;5.20;99.90;;;;;;4996827;28;19925;-70
2022/11/22 01:45:42;;;;;;;;;;;5.20;99.90;;;;;;5001327;28;20028;-70
2022/11/22 01:48:17;;;;;;;;;;;5.20;99.90;;;;;;5009516;28;19932;-70
2022/11/22 01:50:47;;;;;;;;;;;5.20;99.90;;;;;;4999090;28;19929;-70
2022/11/22 01:53:19;;;;;;;;;;;5.20;99.90;;;;;;4998729;28;19926;-70
2022/11/22 01:55:47;;;;;;;;;;;5.20;99.90;;;;;;4998880;28;19968;-70
2022/11/22 01:58:15;;;;;;;;;;;5.20;99.90;;;;;;5000226;28;19932;-70
2022/11/22 02:00:43;;;;;;;;;;;5.20;99.90;;;;;;4996630;28;19940;-70
2022/11/22 02:03:11;;;;;;;;;;;5.20;99.90;;;;;;4992888;28;20576;-70
2022/11/22 02:05:38;;;;;;;;;;;5.20;99.90;;;;;;4999742;28;20000;-70
2022/11/22 02:08:08;;;;;;;;;;;5.20;99.90;;;;;;4999208;28;19925;-70
2022/11/22 02:10:37;;;;;;;;;;;5.20;99.90;;;;;;4992861;28;20020;-70
2022/11/22 02:13:04;;;;;;;;;;;5.20;99.90;;;;;;4998214;28;20004;-70
2022/11/22 02:15:31;;;;;;;;;;;5.20;99.90;;;;;;4998831;28;19999;-70
2022/11/22 02:17:58;;;;;;;;;;;5.20;99.90;;;;;;5002302;28;20483;-70
2022/11/22 02:20:25;;;;;;;;;;;5.20;99.90;;;;;;4995778;28;19926;-70
2022/11/22 02:22:55;;;;;;;;;;;5.20;99.90;;;;;;4997324;28;20121;-70
2022/11/22 02:25:25;;;;;;;;;;;5.20;99.90;;;;;;5002199;28;20341;-70
2022/11/22 02:27:54;;;;;;;;;;;5.20;99.90;;;;;;4998685;28;20037;-70
2022/11/22 02:30:21;;;;;;;;;;;5.20;99.90;;;;;;4998565;28;19936;-70
2022/11/22 02:32:48;;;;;;;;;;;5.20;99.90;;;;;;5004977;28;19933;-69
2022/11/22 02:35:17;;;;;;;;;;;5.20;99.90;;;;;;5017860;28;19940;-70
2022/11/22 02:37:44;;;;;;;;;;;5.20;99.90;;;;;;4999408;28;19980;-70
2022/11/22 02:40:13;;;;;;;;;;;5.20;99.90;;;;;;5005214;28;19926;-70
2022/11/22 02:42:41;;;;;;;;;;;5.20;99.90;;;;;;5004468;28;19980;-70
2022/11/22 02:45:10;;;;;;;;;;;5.20;99.90;;;;;;5005488;28;19952;-70
2022/11/22 02:47:37;;;;;;;;;;;5.20;99.90;;;;;;5002535;28;20318;-70
2022/11/22 02:50:04;;;;;;;;;;;5.20;99.90;;;;;;4996048;28;19964;-70
2022/11/22 02:52:31;;;;;;;;;;;5.20;99.90;;;;;;4999254;28;20311;-70
2022/11/22 02:54:57;;;;;;;;;;;5.20;99.90;;;;;;4999359;28;19953;-70
2022/11/22 02:57:24;;;;;;;;;;;5.20;99.90;;;;;;4999446;28;20480;-70
2022/11/22 02:59:51;;;;;;;;;;;5.20;99.90;;;;;;5016622;28;20303;-70
2022/11/22 03:02:19;;;;;;;;;;;5.30;99.90;;;;;;5000763;28;19929;-70
2022/11/22 03:04:46;;;;;;;;;;;5.20;99.90;;;;;;4998232;28;19926;-70
2022/11/22 03:07:13;;;;;;;;;;;5.20;99.90;;;;;;5001129;28;20018;-70
2022/11/22 03:09:40;;;;;;;;;;;5.20;99.90;;;;;;5000986;28;19932;-70
2022/11/22 03:12:07;;;;;;;;;;;5.30;99.90;;;;;;4999434;28;19932;-70
2022/11/22 03:14:33;;;;;;;;;;;5.30;99.90;;;;;;4997663;28;19940;-70
2022/11/22 03:17:00;;;;;;;;;;;5.20;99.90;;;;;;5001293;28;19984;-70
2022/11/22 03:19:28;;;;;;;;;;;5.30;99.90;;;;;;5004363;28;19929;-70
2022/11/22 03:21:55;;;;;;;;;;;5.30;99.90;;;;;;4997061;28;19929;-70
2022/11/22 03:24:22;;;;;;;;;;;5.30;99.90;;;;;;5000589;28;19926;-70
2022/11/22 03:26:49;;;;;;;;;;;5.30;99.90;;;;;;5003604;28;19975;-70
2022/11/22 03:29:16;;;;;;;;;;;5.30;99.90;;;;;;5010948;28;19976;-70
2022/11/22 03:31:43;;;;;;;;;;;5.30;99.90;;;;;;5002434;28;19980;-70
2022/11/22 03:34:11;;;;;;;;;;;5.30;99.90;;;;;;4999862;28;20645;-70
2022/11/22 03:36:39;;;;;;;;;;;5.30;99.90;;;;;;4997482;28;20368;-70
2022/11/22 03:39:06;;;;;;;;;;;5.30;99.90;;;;;;4995527;28;20359;-70
2022/11/22 03:41:32;;;;;;;;;;;5.30;99.90;;;;;;5002912;28;19964;-70
2022/11/22 03:43:59;;;;;;;;;;;5.30;99.90;;;;;;5003725;28;20249;-70
2022/11/22 03:46:26;;;;;;;;;;;5.30;99.90;;;;;;5000764;28;19936;-70
2022/11/22 03:48:53;;;;;;;;;;;5.30;99.90;;;;;;4997440;28;20330;-69
2022/11/22 03:51:19;;;;;;;;;;;5.30;99.90;;;;;;5001223;28;20025;-69
2022/11/22 03:53:48;;;;;;;;;;;5.40;99.90;;;;;;5003798;28;19961;-69
2022/11/22 03:56:14;;;;;;;;;;;5.40;99.90;;;;;;4993915;28;19929;-69
2022/11/22 03:58:41;;;;;;;;;;;5.40;99.90;;;;;;5005516;28;19929;-70
2022/11/22 04:01:08;;;;;;;;;;;5.40;99.90;;;;;;5002204;28;20051;-69
2022/11/22 04:03:35;;;;;;;;;;;5.40;99.90;;;;;;4996746;28;19929;-69
2022/11/22 04:06:02;;;;;;;;;;;5.40;99.90;;;;;;4993718;28;19929;-69
2022/11/22 04:08:28;;;;;;;;;;;5.40;99.90;;;;;;4991597;28;20016;-70
2022/11/22 04:10:56;;;;;;;;;;;5.40;99.90;;;;;;5003138;28;20451;-69
2022/11/22 04:15:05;;;;;;;;;;;5.40;99.90;;;;;;4998378;28;20311;-69
2022/11/22 04:16:09;;;;;;;;;;;5.40;99.90;;;;;;4998072;28;20783;-69
2022/11/22 04:18:36;;;;;;;;;;;5.40;99.90;;;;;;4995034;28;19922;-69
2022/11/22 04:25:12;;;;;;;;;;;5.40;99.90;;;;;;4999705;28;19929;-69
2022/11/22 04:26:35;;;;;;;;;;;5.40;99.90;;;;;;4995666;28;19929;-70
2022/11/22 04:29:01;;;;;;;;;;;5.40;99.90;;;;;;5000767;28;19930;-69
2022/11/22 04:34:13;;;;;;;;;;;5.40;99.90;;;;;;4996467;28;20299;-69
2022/11/22 04:36:39;;;;;;;;;;;5.40;99.90;;;;;;4997733;28;19926;-70
2022/11/22 04:39:06;;;;;;;;;;;5.40;99.90;;;;;;4988321;28;19940;-69
2022/11/22 04:41:33;;;;;;;;;;;5.50;99.90;;;;;;4994329;28;20013;-69
2022/11/22 04:46:46;;;;;;;;;;;5.40;99.90;;;;;;4996858;28;20303;-70
2022/11/22 04:49:13;;;;;;;;;;;5.40;99.90;;;;;;4996647;28;19933;-69
2022/11/22 04:54:23;;;;;;;;;;;5.40;99.90;;;;;;4992773;28;19952;-69
2022/11/22 04:56:50;;;;;;;;;;;5.40;99.90;;;;;;4987425;28;19929;-71
2022/11/22 05:12:21;;;;;;;;;;;5.40;99.90;;;;;;5053958;28;19931;-71
2022/11/22 05:14:48;;;;;;;;;;;5.50;99.90;;;;;;5056985;28;20006;-72
2022/11/22 05:17:15;;;;;;;;;;;5.30;99.90;;;;;;5054916;28;19968;-71
2022/11/22 05:19:42;;;;;;;;;;;5.40;99.90;;;;;;5045473;28;19932;-71
2022/11/22 05:22:09;;;;;;;;;;;5.30;99.90;;;;;;5051515;28;19960;-71
2022/11/22 05:24:34;;;;;;;;;;;5.30;99.90;;;;;;5055017;28;20511;-71
2022/11/22 05:27:01;;;;;;;;;;;5.40;99.90;;;;;;5048080;28;20027;-71
2022/11/22 05:29:30;;;;;;;;;;;5.30;99.90;;;;;;5051940;28;19924;-71
2022/11/22 05:31:56;;;;;;;;;;;5.30;99.90;;;;;;5049568;28;20012;-71
2022/11/22 05:34:24;;;;;;;;;;;5.30;99.90;;;;;;5044857;28;19964;-82
2022/11/22 05:36:50;;;;;;;;;;;5.30;99.90;;;;;;5056820;28;20360;-72
2022/11/22 05:39:17;;;;;;;;;;;5.30;99.90;;;;;;5050528;28;19960;-75
2022/11/22 05:41:54;;;;;;;;;;;5.30;99.90;;;;;;5048855;28;20561;-74
2022/11/22 05:44:21;;;;;;;;;;;5.30;99.90;;;;;;5046665;28;19933;-73
2022/11/22 05:46:49;;;;;;;;;;;5.30;99.90;;;;;;5055383;28;20475;-73
2022/11/22 05:49:16;;;;;;;;;;;5.30;99.90;;;;;;5051580;28;19925;-73
2022/11/22 05:51:43;;;;;;;;;;;5.30;99.90;;;;;;5049854;28;19929;-75
2022/11/22 05:54:10;;;;;;;;;;;5.30;99.90;;;;;;5050432;28;19932;-74
2022/11/22 05:56:37;;;;;;;;;;;5.30;99.90;;;;;;5043212;28;20408;-75
2022/11/22 05:59:04;;;;;;;;;;;5.30;99.90;;;;;;5045210;28;19932;-72
2022/11/22 06:01:30;;;;;;;;;;;5.30;99.90;;;;;;5039669;28;19928;-75
2022/11/22 06:03:59;;;;;;;;;;;5.30;99.90;;;;;;5048163;28;20015;-74
2022/11/22 06:06:25;;;;;;;;;;;5.30;99.90;;;;;;5045261;28;19928;-74
2022/11/22 06:09:01;;;;;;;;;;;5.30;99.90;;;;;;5047265;28;19952;-73
2022/11/22 06:11:28;;;;;;;;;;;5.30;99.90;;;;;;5035961;28;20472;-73
2022/11/22 06:13:56;;;;;;;;;;;5.30;99.90;;;;;;5023149;28;20016;-84
2022/11/22 06:16:23;;;;;;;;;;;5.30;99.90;;;;;;5035105;28;19964;-72
2022/11/22 06:18:50;;;;;;;;;;;5.30;99.90;;;;;;5026050;28;19929;-73
2022/11/22 06:21:22;;;;;;;;;;;5.30;99.90;;;;;;5034391;28;20020;-76
2022/11/22 06:23:49;;;;;;;;;;;5.30;99.90;;;;;;5027883;28;19960;-73
2022/11/22 06:26:17;;;;;;;;;;;5.30;99.90;;;;;;5022825;28;20511;-73
2022/11/22 06:28:44;;;;;;;;;;;5.30;99.90;;;;;;5025418;28;19940;-73
2022/11/22 06:31:12;;;;;;;;;;;5.30;99.90;;;;;;5028517;28;19932;-73
2022/11/22 06:33:42;;;;;;;;;;;5.30;99.90;;;;;;5027613;28;19936;-72
2022/11/22 06:36:10;;;;;;;;;;;5.30;99.90;;;;;;5034432;28;20111;-73
2022/11/22 06:38:38;;;;;;;;;;;5.30;99.90;;;;;;5033654;28;20320;-72
2022/11/22 06:41:06;;;;;;;;;;;5.30;99.90;;;;;;5025701;28;20015;-72
2022/11/22 06:43:34;;;;;;;;;;;5.20;99.90;;;;;;5022472;28;20438;-72
2022/11/22 06:46:01;;;;;;;;;;;5.30;99.90;;;;;;5033205;28;19929;-72
2022/11/22 06:48:29;;;;;;;;;;;5.20;99.90;;;;;;5040383;28;20016;-72
2022/11/22 06:50:58;;;;;;;;;;;5.20;99.90;;;;;;5040483;28;20413;-72
2022/11/22 06:53:26;;;;;;;;;;;5.20;99.90;;;;;;5038367;28;19925;-72
2022/11/22 06:55:58;;;;;;;;;;;5.20;99.90;;;;;;5037367;28;19925;-72
2022/11/22 06:58:25;;;;;;;;;;;5.20;99.90;;;;;;5039698;28;20278;-72
2022/11/22 07:00:52;;;;;;;;;;;5.20;99.90;;;;;;5041999;28;19944;-72
2022/11/22 07:03:19;;;;;;;;;;;5.20;99.90;;;;;;5041903;28;19931;-72
2022/11/22 07:05:49;;;;;;;;;;;5.20;99.90;;;;;;5031918;28;19960;-71
2022/11/22 07:08:16;;;;;;;;;;;5.20;99.90;;;;;;5034734;28;19925;-72
2022/11/22 07:10:43;;;;;;;;;;;5.20;99.90;;;;;;5039182;28;19931;-70
2022/11/22 07:13:11;;;;;;;;;;;5.20;99.90;;;;;;5036548;28;19932;-72
2022/11/22 07:15:38;;;;;;;;;;;5.20;99.90;;;;;;5033765;28;19929;-72
2022/11/22 07:18:05;;;;;;;;;;;5.20;99.90;;;;;;5039106;28;19925;-72
2022/11/22 07:20:32;;;;;;;;;;;5.20;99.90;;;;;;5037324;28;20368;-72
2022/11/22 07:22:58;;;;;;;;;;;5.20;99.90;;;;;;5040297;28;20414;-72
2022/11/22 07:25:25;;;;;;;;;;;5.20;99.90;;;;;;5040798;28;19928;-72
2022/11/22 07:27:52;;;;;;;;;;;5.20;99.90;;;;;;5036925;28;20044;-72
2022/11/22 07:30:20;;;;;;;;;;;5.10;99.90;;;;;;5030487;28;20402;-72
2022/11/22 07:32:47;;;;;;;;;;;5.10;99.90;;;;;;5057297;28;20032;-71
2022/11/22 07:35:14;;;;;;;;;;;5.20;99.90;;;;;;5042979;28;20012;-72
2022/11/22 07:37:41;;;;;;;;;;;5.20;99.90;;;;;;5024448;28;19960;-72
2022/11/22 07:40:13;;;;;;;;;;;5.20;99.90;;;;;;5043246;28;20438;-72
2022/11/22 07:42:40;;;;;;;;;;;5.20;99.90;;;;;;5041984;28;19931;-72
2022/11/22 07:45:07;;;;;;;;;;;5.20;99.90;;;;;;5039076;28;20113;-72
2022/11/22 07:47:35;;;;;;;;;;;5.10;99.90;;;;;;5041390;28;20297;-72
2022/11/22 07:50:02;;;;;;;;;;;5.20;99.90;;;;;;5043978;28;19928;-72
2022/11/22 07:52:29;;;;;;;;;;;5.20;99.90;;;;;;5040171;28;20069;-72
2022/11/22 07:54:55;;;;;;;;;;;5.20;99.90;;;;;;5036755;28;19960;-71
2022/11/22 07:57:22;;;;;;;;;;;5.20;99.90;;;;;;5038429;28;20459;-72
2022/11/22 07:59:49;;;;;;;;;;;5.20;99.90;;;;;;5036621;28;20380;-72
2022/11/22 08:02:16;;;;;;;;;;;5.20;99.90;;;;;;5040441;28;20365;-72
2022/11/22 08:04:44;;;;;;;;;;;5.10;99.90;;;;;;5053836;28;20008;-72
2022/11/22 08:07:11;;;;;;;;;;;5.20;99.90;;;;;;5047242;28;20414;-72
2022/11/22 08:09:38;;;;;;;;;;;5.20;99.90;;;;;;5036563;28;20300;-72
2022/11/22 08:12:04;;;;;;;;;;;5.20;99.90;;;;;;5034728;28;19933;-72
2022/11/22 08:14:31;;;;;;;;;;;5.20;99.90;;;;;;5044321;28;19928;-72
2022/11/22 08:16:58;;;;;;;;;;;5.20;99.90;;;;;;5036856;28;20372;-71
2022/11/22 08:19:25;;;;;;;;;;;5.20;99.90;;;;;;5040929;28;19931;-71
2022/11/22 08:21:53;;;;;;;;;;;5.20;99.90;;;;;;5032789;28;20008;-72
2022/11/22 08:24:20;;;;;;;;;;;5.10;99.90;;;;;;5033799;28;20396;-72
2022/11/22 08:26:47;;;;;;;;;;;5.10;99.90;;;;;;5041110;28;19982;-70
2022/11/22 08:29:14;;;;;;;;;;;5.10;99.90;;;;;;5035432;28;19928;-72
2022/11/22 08:31:41;;;;;;;;;;;5.10;99.90;;;;;;5035678;28;19929;-72
2022/11/22 08:34:07;;;;;;;;;;;5.20;99.90;;;;;;5040256;28;19948;-71
2022/11/22 08:36:34;;;;;;;;;;;5.20;99.90;;;;;;5032517;28;19963;-71
2022/11/22 08:39:02;;;;;;;;;;;5.10;99.90;;;;;;5036780;28;19932;-71
2022/11/22 08:41:29;;;;;;;;;;;5.20;99.90;;;;;;5036178;28;20648;-71
2022/11/22 08:43:56;;;;;;;;;;;5.20;99.90;;;;;;5040542;28;19988;-71
2022/11/22 08:46:23;;;;;;;;;;;5.20;99.90;;;;;;5035392;28;20393;-71
2022/11/22 08:48:51;;;;;;;;;;;5.20;99.90;;;;;;5040123;28;19986;-71
2022/11/22 08:51:18;;;;;;;;;;;5.20;99.90;;;;;;5045254;28;19929;-71
2022/11/22 08:53:45;;;;;;;;;;;5.20;99.90;;;;;;5032567;28;19991;-71
2022/11/22 08:56:14;;;;;;;;;;;5.30;99.90;;;;;;5025792;28;20015;-71
2022/11/22 08:58:41;;;;;;;;;;;5.20;99.90;;;;;;5039423;28;19987;-72
2022/11/22 09:01:09;;;;;;;;;;;5.30;99.90;;;;;;5035303;28;19976;-71
2022/11/22 09:03:36;;;;;;;;;;;5.30;99.90;;;;;;5029626;28;19968;-72
2022/11/22 09:06:04;;;;;;;;;;;5.30;99.90;;;;;;5037854;28;19972;-71
2022/11/22 09:08:31;;;;;;;;;;;5.30;99.90;;;;;;5036816;28;19932;-71
2022/11/22 09:11:00;;;;;;;;;;;5.30;99.90;;;;;;5037464;28;20354;-72
2022/11/22 09:13:28;;;;;;;;;;;5.30;99.90;;;;;;5032169;28;19933;-71
2022/11/22 09:15:55;;;;;;;;;;;5.30;99.90;;;;;;5037584;28;20016;-71
2022/11/22 09:18:24;;;;;;;;;;;5.30;99.90;;;;;;5040332;28;19979;-71
2022/11/22 09:20:56;;;;;;;;;;;5.30;99.90;;;;;;5040244;28;19925;-71
2022/11/22 09:23:23;;;;;;;;;;;5.30;99.90;;;;;;5032399;28;20611;-71
2022/11/22 09:25:56;;;;;;;;;;;5.30;99.90;;;;;;5033641;28;19925;-72
2022/11/22 09:28:23;;;;;;;;;;;5.30;99.90;;;;;;5031412;28;19968;-71
2022/11/22 09:30:51;;;;;;;;;;;5.30;99.90;;;;;;5041699;28;19933;-71
2022/11/22 09:33:18;;;;;;;;;;;5.40;99.90;;;;;;5035602;28;21165;-71
2022/11/22 09:35:44;;;;;;;;;;;5.40;99.90;;;;;;5044902;28;19964;-71
2022/11/22 09:38:11;;;;;;;;;;;5.40;99.90;;;;;;5041135;28;19932;-71
2022/11/22 09:40:38;;;;;;;;;;;5.40;99.90;;;;;;5035593;28;20312;-71
2022/11/22 09:43:09;;;;;;;;;;;5.40;99.90;;;;;;5037410;28;19964;-71
2022/11/22 09:46:00;;;;;;;;;;;5.40;99.90;;;;;;5039874;28;19968;-72
2022/11/22 09:48:38;;;;;;;;;;;5.40;99.90;;;;;;5020859;28;20004;-71
2022/11/22 09:51:06;;;;;;;;;;;5.40;99.90;;;;;;5042665;28;20367;-71
2022/11/22 09:53:36;;;;;;;;;;;5.40;99.90;;;;;;5041406;28;19939;-71
2022/11/22 09:56:04;;;;;;;;;;;5.40;99.90;;;;;;5044912;28;20022;-71
2022/11/22 09:58:34;;;;;;;;;;;5.50;99.90;;;;;;5037684;28;19978;-71
2022/11/22 10:01:03;;;;;;;;;;;5.40;99.90;;;;;;5042298;28;19925;-71
2022/11/22 10:03:37;;;;;;;;;;;5.50;99.90;;;;;;5056609;28;19968;-71
2022/11/22 10:06:06;;;;;;;;;;;5.50;99.90;;;;;;5036749;28;20352;-71
2022/11/22 10:08:36;;;;;;;;;;;5.50;99.90;;;;;;5034431;28;19935;-71
2022/11/22 10:11:05;;;;;;;;;;;5.50;99.90;;;;;;5040107;28;20032;-71
2022/11/22 10:13:35;;;;;;;;;;;5.50;99.90;;;;;;5033696;28;19932;-72
2022/11/22 10:16:06;;;;;;;;;;;5.50;99.90;;;;;;5033205;28;20363;-71
2022/11/22 10:18:38;;;;;;;;;;;5.50;99.90;;;;;;5040101;28;20301;-71
2022/11/22 10:21:07;;;;;;;;;;;5.50;99.90;;;;;;5033003;28;20498;-72
2022/11/22 10:23:34;;;;;;;;;;;5.50;99.90;;;;;;5041782;28;19939;-71
2022/11/22 10:26:05;;;;;;;;;;;5.50;99.90;;;;;;5034547;28;19975;-71
2022/11/22 10:28:34;;;;;;;;;;;5.60;99.90;;;;;;5038659;28;20353;-71
2022/11/22 10:31:03;;;;;;;;;;;5.50;99.90;;;;;;5042690;28;19925;-71
2022/11/22 10:33:34;;;;;;;;;;;5.60;99.90;;;;;;5035194;28;19933;-70
2022/11/22 10:36:17;;;;;;;;;;;5.60;99.90;;;;;;5040075;28;19924;-71
2022/11/22 10:38:51;;;;;;;;;;;5.60;99.90;;;;;;5038712;28;20023;-71
2022/11/22 10:41:25;;;;;;;;;;;5.60;99.90;;;;;;5035454;28;20038;-71
2022/11/22 10:43:59;;;;;;;;;;;5.60;99.90;;;;;;5040953;28;20032;-71
2022/11/22 10:46:30;;;;;;;;;;;5.70;99.90;;;;;;5035334;28;19995;-73
2022/11/22 10:49:00;;;;;;;;;;;5.60;99.90;;;;;;5031248;28;19925;-71
2022/11/22 10:51:33;;;;;;;;;;;5.60;99.90;;;;;;5034943;28;19925;-71
2022/11/22 10:54:05;;;;;;;;;;;5.70;99.90;;;;;;5058542;28;20305;-71
2022/11/22 10:56:34;;;;;;;;;;;5.70;99.90;;;;;;5037072;28;20430;-71
2022/11/22 10:59:11;;;;;;;;;;;5.70;99.90;;;;;;5035971;28;19928;-71
2022/11/22 11:01:39;;;;;;;;;;;5.70;99.90;;;;;;5038363;28;20415;-71
2022/11/22 11:04:07;;;;;;;;;;;5.70;99.90;;;;;;5041571;28;19964;-71
2022/11/22 11:06:40;;;;;;;;;;;5.70;99.90;;;;;;5039710;28;20419;-71
2022/11/22 11:09:10;;;;;;;;;;;5.70;99.90;;;;;;5043142;28;19986;-71
2022/11/22 11:11:38;;;;;;;;;;;5.70;99.90;;;;;;5055670;28;19924;-71
2022/11/22 11:14:07;;;;;;;;;;;5.70;99.90;;;;;;5032156;28;20443;-71
2022/11/22 11:16:36;;;;;;;;;;;5.80;99.90;;;;;;5037196;28;19936;-71
2022/11/22 11:19:06;;;;;;;;;;;5.70;99.90;;;;;;5042134;28;20409;-71
2022/11/22 11:21:33;;;;;;;;;;;5.70;99.90;;;;;;5043655;28;19967;-71
2022/11/22 11:24:01;;;;;;;;;;;5.80;99.90;;;;;;5034298;28;20316;-71
2022/11/22 11:26:29;;;;;;;;;;;5.80;99.90;;;;;;5036634;28;20040;-71
2022/11/22 11:29:13;;;;;;;;;;;5.80;99.90;;;;;;5038382;28;20463;-71
2022/11/22 11:31:41;;;;;;;;;;;5.80;99.90;;;;;;5036289;28;20018;-71
2022/11/22 11:34:16;;;;;;;;;;;5.80;99.90;;;;;;5050370;28;19925;-71
2022/11/22 11:36:43;;;;;;;;;;;5.80;99.90;;;;;;5041312;28;19933;-71
2022/11/22 11:39:19;;;;;;;;;;;5.80;99.90;;;;;;5042536;28;20295;-71
2022/11/22 11:41:46;;;;;;;;;;;5.80;99.90;;;;;;5033372;28;20043;-71
2022/11/22 11:44:26;;;;;;;;;;;5.80;99.90;;;;;;5038680;28;20758;-72
2022/11/22 11:46:53;;;;;;;;;;;5.90;99.90;;;;;;5035803;28;19982;-71
2022/11/22 11:49:23;;;;;;;;;;;5.90;99.90;;;;;;5035663;28;20011;-71
2022/11/22 11:51:54;;;;;;;;;;;5.90;99.90;;;;;;5035545;28;20474;-71
2022/11/22 11:54:25;;;;;;;;;;;5.90;99.90;;;;;;5040872;28;20407;-71
2022/11/22 11:56:52;;;;;;;;;;;5.90;99.90;;;;;;5038436;28;19951;-71
2022/11/22 11:59:20;;;;;;;;;;;5.90;99.90;;;;;;5033880;28;20416;-71
2022/11/22 12:01:49;;;;;;;;;;;5.90;99.90;;;;;;5036836;28;19970;-71
2022/11/22 12:04:19;;;;;;;;;;;5.90;99.90;;;;;;5039820;28;20078;-72
2022/11/22 12:06:52;;;;;;;;;;;5.90;99.90;;;;;;5034187;28;19933;-71
2022/11/22 12:09:28;;;;;;;;;;;5.90;99.90;;;;;;5035976;28;19937;-70
2022/11/22 12:11:58;;;;;;;;;;;6.00;99.90;;;;;;5035762;28;19933;-71
2022/11/22 12:14:26;;;;;;;;;;;5.90;99.90;;;;;;5040759;28;19936;-71
2022/11/22 12:16:54;;;;;;;;;;;6.00;99.90;;;;;;5031053;28;19932;-70
2022/11/22 12:19:24;;;;;;;;;;;6.00;99.90;;;;;;5037621;28;19925;-71
2022/11/22 12:21:54;;;;;;;;;;;6.00;99.90;;;;;;5036437;28;19937;-69
2022/11/22 12:24:30;;;;;;;;;;;6.00;99.90;;;;;;5044537;28;19932;-71
2022/11/22 12:26:58;;;;;;;;;;;6.00;99.90;;;;;;5028882;28;20392;-72
2022/11/22 12:29:25;;;;;;;;;;;6.00;99.90;;;;;;5037007;28;19925;-69
2022/11/22 12:31:53;;;;;;;;;;;6.00;99.90;;;;;;5029876;28;19925;-69
2022/11/22 12:34:24;;;;;;;;;;;6.00;99.90;;;;;;5034724;28;21510;-69
2022/11/22 12:36:53;;;;;;;;;;;6.00;99.90;;;;;;5051454;28;19951;-69
2022/11/22 12:39:21;;;;;;;;;;;6.00;99.90;;;;;;5042373;28;19925;-69
2022/11/22 12:41:50;;;;;;;;;;;6.00;99.90;;;;;;5038994;28;19986;-71
2022/11/22 12:44:19;;;;;;;;;;;6.10;99.90;;;;;;5034909;28;20329;-71
2022/11/22 12:46:48;;;;;;;;;;;6.00;99.90;;;;;;5032564;28;19929;-72
2022/11/22 12:49:17;;;;;;;;;;;6.10;99.90;;;;;;5034128;28;20392;-69
2022/11/22 12:51:46;;;;;;;;;;;6.10;99.90;;;;;;5030627;28;20015;-69
2022/11/22 12:54:16;;;;;;;;;;;6.10;99.90;;;;;;5042063;28;19940;-69
2022/11/22 12:56:44;;;;;;;;;;;6.10;99.90;;;;;;5037221;28;20408;-69
2022/11/22 12:59:15;;;;;;;;;;;6.10;99.90;;;;;;5036673;28;19924;-69
2022/11/22 13:01:48;;;;;;;;;;;6.10;99.90;;;;;;5039224;28;19940;-70
2022/11/22 13:04:19;;;;;;;;;;;6.10;99.90;;;;;;5034739;28;19929;-71
2022/11/22 13:06:52;;;;;;;;;;;6.10;99.90;;;;;;5032030;28;19935;-69
2022/11/22 13:09:20;;;;;;;;;;;6.10;99.90;;;;;;5036651;28;19983;-69
2022/11/22 13:11:49;;;;;;;;;;;6.10;99.90;;;;;;5035522;28;20458;-69
2022/11/22 13:14:18;;;;;;;;;;;6.20;99.90;;;;;;5039460;28;19931;-71
2022/11/22 13:16:46;;;;;;;;;;;6.20;99.90;;;;;;5027952;28;19936;-71
2022/11/22 13:19:15;;;;;;;;;;;6.20;99.90;;;;;;5037456;28;19925;-69
2022/11/22 13:21:45;;;;;;;;;;;6.20;99.90;;;;;;5036956;28;19979;-69
2022/11/22 13:24:27;;;;;;;;;;;6.10;99.90;;;;;;5039458;28;19925;-69
2022/11/22 13:26:58;;;;;;;;;;;6.20;99.90;;;;;;5032913;28;20024;-71
2022/11/22 13:29:26;;;;;;;;;;;6.20;99.90;;;;;;5033643;28;20340;-69
2022/11/22 13:32:02;;;;;;;;;;;6.20;99.90;;;;;;5035127;28;20389;-69
2022/11/22 13:34:29;;;;;;;;;;;6.20;99.90;;;;;;5025014;28;19933;-73
2022/11/22 13:37:02;;;;;;;;;;;6.20;99.90;;;;;;5034038;28;19972;-70
2022/11/22 13:39:29;;;;;;;;;;;6.20;99.90;;;;;;5038305;28;19982;-70
2022/11/22 13:42:04;;;;;;;;;;;6.20;99.90;;;;;;5039682;28;19961;-70
2022/11/22 13:44:38;;;;;;;;;;;6.20;99.90;;;;;;5040858;28;19940;-72
2022/11/22 13:47:27;;;;;;;;;;;6.20;99.90;;;;;;5036400;28;20362;-72
2022/11/22 13:49:55;;;;;;;;;;;6.20;99.90;;;;;;5032307;28;19929;-72
2022/11/22 13:52:33;;;;;;;;;;;6.20;99.90;;;;;;5030910;28;20317;-70
2022/11/22 13:55:21;;;;;;;;;;;6.20;99.90;;;;;;5037721;28;19925;-69
2022/11/22 13:57:48;;;;;;;;;;;6.20;99.90;;;;;;5029314;28;19929;-72
2022/11/22 14:00:46;;;;;;;;;;;6.20;99.90;;;;;;5041908;28;20038;-71
2022/11/22 14:03:31;;;;;;;;;;;6.20;99.90;;;;;;5034394;28;19939;-71
2022/11/22 14:06:00;;;;;;;;;;;6.20;99.90;;;;;;5040706;28;19936;-72
2022/11/22 14:08:29;;;;;;;;;;;6.20;99.90;;;;;;5031100;28;20751;-72
2022/11/22 14:11:10;;;;;;;;;;;6.20;99.90;;;;;;5035647;28;20021;-70
2022/11/22 14:13:46;;;;;;;;;;;6.20;99.90;;;;;;5034586;28;20487;-71
2022/11/22 14:16:23;;;;;;;;;;;6.20;99.90;;;;;;5040324;28;19925;-69
2022/11/22 14:18:58;;;;;;;;;;;6.30;99.90;;;;;;5035881;28;19928;-69
2022/11/22 14:21:46;;;;;;;;;;;6.30;99.90;;;;;;5033448;28;20652;-71
2022/11/22 14:24:16;;;;;;;;;;;6.20;99.90;;;;;;5036241;28;20432;-69
2022/11/22 14:26:47;;;;;;;;;;;6.20;99.90;;;;;;5032546;28;20010;-69
2022/11/22 14:29:33;;;;;;;;;;;6.20;99.90;;;;;;5024428;28;19933;-69
2022/11/22 14:32:01;;;;;;;;;;;6.20;99.90;;;;;;5025027;28;19937;-69
2022/11/22 14:34:29;;;;;;;;;;;6.20;99.90;;;;;;5030874;28;19952;-69
2022/11/22 14:37:30;;;;;;;;;;;6.20;99.90;;;;;;5043755;28;20052;-69
2022/11/22 14:40:03;;;;;;;;;;;6.30;99.90;;;;;;4969266;28;20453;-69
2022/11/22 14:42:46;;;;;;;;;;;6.30;99.90;;;;;;4965140;28;20025;-70
2022/11/22 14:45:16;;;;;;;;;;;6.20;99.90;;;;;;5002965;28;19925;-70
2022/11/22 14:47:45;;;;;;;;;;;6.30;99.90;;;;;;5035036;28;20016;-69
2022/11/22 14:50:15;;;;;;;;;;;6.20;99.90;;;;;;5035917;28;20412;-69
2022/11/22 14:52:43;;;;;;;;;;;6.20;99.90;;;;;;5028867;28;19928;-69
2022/11/22 14:55:15;;;;;;;;;;;6.30;99.90;;;;;;5034379;28;19964;-69
2022/11/22 14:57:42;;;;;;;;;;;6.20;99.90;;;;;;5040601;28;19925;-69
2022/11/22 15:00:17;;;;;;;;;;;6.30;99.90;;;;;;5045454;28;20470;-69
2022/11/22 15:03:05;;;;;;;;;;;6.20;99.90;;;;;;5033555;28;19925;-69
2022/11/22 15:05:40;;;;;;;;;;;6.20;99.90;;;;;;5029254;28;19944;-70